sensor_id;sensor_type;location;lat;lon;timestamp;pressure;altitude;pressure_sealevel;temperature;humidity
71889;BME280;59762;49.998;14.858;2023-07-20T00:01:04;96876.63;;;16.53;77.13
71889;BME280;59762;49.998;14.858;2023-07-20T00:03:32;96873.91;;;16.59;77.37
71889;BME280;59762;49.998;14.858;2023-07-20T00:05:57;96877.84;;;16.63;78.08
71889;BME280;59762;49.998;14.858;2023-07-20T00:08:23;96875.56;;;16.47;78.16
71889;BME280;59762;49.998;14.858;2023-07-20T00:10:49;96881.34;;;16.51;78.15
71889;BME280;59762;49.998;14.858;2023-07-20T00:13:15;96872.66;;;16.42;78.56
71889;BME280;59762;49.998;14.858;2023-07-20T00:15:41;96871.41;;;16.32;79.10
71889;BME280;59762;49.998;14.858;2023-07-20T00:18:07;96870.75;;;16.23;79.73
71889;BME280;59762;49.998;14.858;2023-07-20T00:20:33;96867.06;;;16.37;79.18
71889;BME280;59762;49.998;14.858;2023-07-20T00:22:59;96862.47;;;16.31;79.14
71889;BME280;59762;49.998;14.858;2023-07-20T00:25:24;96864.97;;;16.39;78.99
71889;BME280;59762;49.998;14.858;2023-07-20T00:27:50;96874.91;;;16.32;79.29
71889;BME280;59762;49.998;14.858;2023-07-20T00:30:16;96896.44;;;16.19;79.41
71889;BME280;59762;49.998;14.858;2023-07-20T00:32:43;96888.16;;;16.21;79.24
71889;BME280;59762;49.998;14.858;2023-07-20T00:35:09;96885.41;;;15.88;81.05
71889;BME280;59762;49.998;14.858;2023-07-20T00:37:36;96883.72;;;15.74;82.92
71889;BME280;59762;49.998;14.858;2023-07-20T00:40:02;96889.13;;;15.81;82.81
71889;BME280;59762;49.998;14.858;2023-07-20T00:42:31;96885.63;;;16.00;82.61
71889;BME280;59762;49.998;14.858;2023-07-20T00:44:56;96882.94;;;16.06;82.56
71889;BME280;59762;49.998;14.858;2023-07-20T00:47:22;96878.22;;;16.08;82.50
71889;BME280;59762;49.998;14.858;2023-07-20T00:49:48;96885.88;;;16.05;82.35
71889;BME280;59762;49.998;14.858;2023-07-20T00:52:14;96893.69;;;15.87;82.40
71889;BME280;59762;49.998;14.858;2023-07-20T00:55:10;96909.25;;;15.91;81.76
71889;BME280;59762;49.998;14.858;2023-07-20T00:57:36;96901.16;;;15.91;81.91
71889;BME280;59762;49.998;14.858;2023-07-20T01:00:02;96907.13;;;15.80;81.79
71889;BME280;59762;49.998;14.858;2023-07-20T01:02:28;96910.84;;;15.79;81.94
71889;BME280;59762;49.998;14.858;2023-07-20T01:04:54;96906.72;;;15.77;82.21
71889;BME280;59762;49.998;14.858;2023-07-20T01:10:05;96905.59;;;15.58;83.02
71889;BME280;59762;49.998;14.858;2023-07-20T01:12:39;96907.25;;;15.53;83.70
71889;BME280;59762;49.998;14.858;2023-07-20T01:15:06;96904.34;;;15.54;83.17
71889;BME280;59762;49.998;14.858;2023-07-20T01:17:34;96920.50;;;15.54;82.81
71889;BME280;59762;49.998;14.858;2023-07-20T01:19:59;96924.06;;;15.68;81.93
71889;BME280;59762;49.998;14.858;2023-07-20T01:22:52;96930.66;;;15.59;82.52
71889;BME280;59762;49.998;14.858;2023-07-20T01:25:51;96925.34;;;15.72;81.76
71889;BME280;59762;49.998;14.858;2023-07-20T01:28:37;96918.44;;;15.56;82.89
71889;BME280;59762;49.998;14.858;2023-07-20T01:31:24;96924.50;;;15.78;81.75
71889;BME280;59762;49.998;14.858;2023-07-20T01:33:52;96925.44;;;16.04;80.22
71889;BME280;59762;49.998;14.858;2023-07-20T01:36:19;96927.69;;;15.94;80.51
71889;BME280;59762;49.998;14.858;2023-07-20T01:38:47;96925.19;;;15.93;80.50
71889;BME280;59762;49.998;14.858;2023-07-20T01:41:13;96928.50;;;15.88;80.80
71889;BME280;59762;49.998;14.858;2023-07-20T01:43:40;96923.53;;;15.85;80.86
71889;BME280;59762;49.998;14.858;2023-07-20T01:46:06;96926.84;;;15.87;80.99
71889;BME280;59762;49.998;14.858;2023-07-20T01:48:32;96930.38;;;15.88;80.69
71889;BME280;59762;49.998;14.858;2023-07-20T01:50:57;96937.00;;;15.92;80.73
71889;BME280;59762;49.998;14.858;2023-07-20T01:53:23;96936.41;;;16.03;80.38
71889;BME280;59762;49.998;14.858;2023-07-20T01:55:49;96926.25;;;15.98;81.03
71889;BME280;59762;49.998;14.858;2023-07-20T01:58:15;96927.28;;;16.10;79.73
71889;BME280;59762;49.998;14.858;2023-07-20T02:00:40;96930.00;;;16.10;80.65
71889;BME280;59762;49.998;14.858;2023-07-20T02:03:06;96917.38;;;16.24;79.44
71889;BME280;59762;49.998;14.858;2023-07-20T02:05:33;96921.94;;;16.23;79.39
71889;BME280;59762;49.998;14.858;2023-07-20T02:07:59;96925.88;;;16.34;78.62
71889;BME280;59762;49.998;14.858;2023-07-20T02:10:24;96919.44;;;16.28;78.95
71889;BME280;59762;49.998;14.858;2023-07-20T02:12:50;96921.94;;;16.23;79.14
71889;BME280;59762;49.998;14.858;2023-07-20T02:15:16;96924.03;;;16.34;79.08
71889;BME280;59762;49.998;14.858;2023-07-20T02:17:42;96926.53;;;16.36;78.50
71889;BME280;59762;49.998;14.858;2023-07-20T02:20:09;96919.44;;;16.35;78.20
71889;BME280;59762;49.998;14.858;2023-07-20T02:22:36;96925.13;;;16.46;77.50
71889;BME280;59762;49.998;14.858;2023-07-20T02:25:06;96915.59;;;16.50;77.75
71889;BME280;59762;49.998;14.858;2023-07-20T02:27:33;96927.78;;;16.40;77.67
71889;BME280;59762;49.998;14.858;2023-07-20T02:29:59;96931.75;;;16.44;77.31
71889;BME280;59762;49.998;14.858;2023-07-20T02:32:25;96919.91;;;16.38;78.16
71889;BME280;59762;49.998;14.858;2023-07-20T02:34:51;96927.78;;;16.33;78.15
71889;BME280;59762;49.998;14.858;2023-07-20T02:37:17;96936.25;;;16.24;78.93
71889;BME280;59762;49.998;14.858;2023-07-20T02:39:42;96940.19;;;16.28;78.90
71889;BME280;59762;49.998;14.858;2023-07-20T02:42:08;96928.38;;;16.29;78.35
71889;BME280;59762;49.998;14.858;2023-07-20T02:44:34;96920.28;;;16.22;78.50
71889;BME280;59762;49.998;14.858;2023-07-20T02:47:00;96924.63;;;16.23;78.44
71889;BME280;59762;49.998;14.858;2023-07-20T02:49:26;96925.47;;;16.24;78.52
71889;BME280;59762;49.998;14.858;2023-07-20T02:51:52;96928.75;;;16.19;78.77
71889;BME280;59762;49.998;14.858;2023-07-20T02:54:17;96927.94;;;16.19;78.77
71889;BME280;59762;49.998;14.858;2023-07-20T02:56:43;96929.41;;;16.21;78.68
71889;BME280;59762;49.998;14.858;2023-07-20T02:59:09;96932.09;;;16.21;78.43
71889;BME280;59762;49.998;14.858;2023-07-20T03:01:35;96932.72;;;16.23;78.38
71889;BME280;59762;49.998;14.858;2023-07-20T03:04:00;96928.38;;;16.22;78.18
71889;BME280;59762;49.998;14.858;2023-07-20T03:06:26;96922.13;;;16.28;77.94
71889;BME280;59762;49.998;14.858;2023-07-20T03:08:52;96925.91;;;16.40;77.36
71889;BME280;59762;49.998;14.858;2023-07-20T03:11:19;96929.41;;;16.34;77.35
71889;BME280;59762;49.998;14.858;2023-07-20T03:13:46;96942.25;;;16.39;77.12
71889;BME280;59762;49.998;14.858;2023-07-20T03:16:14;96941.25;;;16.40;77.10
71889;BME280;59762;49.998;14.858;2023-07-20T03:18:41;96942.88;;;16.28;77.29
71889;BME280;59762;49.998;14.858;2023-07-20T03:21:08;96950.34;;;16.32;77.55
71889;BME280;59762;49.998;14.858;2023-07-20T03:23:37;96950.13;;;16.34;77.64
71889;BME280;59762;49.998;14.858;2023-07-20T03:26:03;96956.75;;;16.25;78.09
71889;BME280;59762;49.998;14.858;2023-07-20T03:28:28;96954.47;;;16.35;77.48
71889;BME280;59762;49.998;14.858;2023-07-20T03:30:57;96958.00;;;16.22;78.15
71889;BME280;59762;49.998;14.858;2023-07-20T03:33:26;96953.84;;;16.26;77.75
71889;BME280;59762;49.998;14.858;2023-07-20T03:35:53;96954.06;;;16.25;78.43
71889;BME280;59762;49.998;14.858;2023-07-20T03:38:19;96951.75;;;16.15;78.40
71889;BME280;59762;49.998;14.858;2023-07-20T03:40:59;96953.22;;;16.18;78.50
71889;BME280;59762;49.998;14.858;2023-07-20T03:43:26;96962.97;;;16.19;78.50
71889;BME280;59762;49.998;14.858;2023-07-20T03:45:53;96961.72;;;16.21;78.23
71889;BME280;59762;49.998;14.858;2023-07-20T03:48:21;96962.53;;;16.22;78.66
71889;BME280;59762;49.998;14.858;2023-07-20T03:50:48;96962.78;;;16.27;78.03
71889;BME280;59762;49.998;14.858;2023-07-20T03:53:15;96957.88;;;16.56;77.26
71889;BME280;59762;49.998;14.858;2023-07-20T03:55:41;96965.75;;;16.64;76.78
71889;BME280;59762;49.998;14.858;2023-07-20T03:58:09;96962.03;;;16.85;76.11
71889;BME280;59762;49.998;14.858;2023-07-20T04:00:35;96966.13;;;17.20;74.83
71889;BME280;59762;49.998;14.858;2023-07-20T04:03:00;96965.56;;;17.05;74.89
71889;BME280;59762;49.998;14.858;2023-07-20T04:05:26;96966.94;;;17.46;73.60
71889;BME280;59762;49.998;14.858;2023-07-20T04:07:52;96963.88;;;16.97;75.42
71889;BME280;59762;49.998;14.858;2023-07-20T04:10:18;96968.47;;;16.90;76.11
71889;BME280;59762;49.998;14.858;2023-07-20T04:12:47;96966.66;;;17.74;72.74
71889;BME280;59762;49.998;14.858;2023-07-20T04:15:13;96968.34;;;17.62;73.16
71889;BME280;59762;49.998;14.858;2023-07-20T04:17:39;96974.25;;;17.90;71.39
71889;BME280;59762;49.998;14.858;2023-07-20T04:20:07;96975.41;;;17.63;72.92
71889;BME280;59762;49.998;14.858;2023-07-20T04:22:32;96972.03;;;18.24;70.45
71889;BME280;59762;49.998;14.858;2023-07-20T04:24:58;96982.22;;;18.60;68.72
71889;BME280;59762;49.998;14.858;2023-07-20T04:27:24;96978.28;;;18.18;70.08
71889;BME280;59762;49.998;14.858;2023-07-20T04:29:50;96983.69;;;18.18;70.07
71889;BME280;59762;49.998;14.858;2023-07-20T04:32:15;96979.13;;;17.68;71.85
71889;BME280;59762;49.998;14.858;2023-07-20T04:34:42;96978.63;;;17.84;71.74
71889;BME280;59762;49.998;14.858;2023-07-20T04:37:07;96977.94;;;18.77;68.89
71889;BME280;59762;49.998;14.858;2023-07-20T04:39:33;96979.22;;;18.99;67.61
71889;BME280;59762;49.998;14.858;2023-07-20T04:41:59;96971.94;;;19.24;66.71
71889;BME280;59762;49.998;14.858;2023-07-20T04:44:24;96981.13;;;18.30;70.39
71889;BME280;59762;49.998;14.858;2023-07-20T04:46:50;96972.44;;;17.84;72.14
71889;BME280;59762;49.998;14.858;2023-07-20T04:49:16;96967.88;;;17.78;72.49
71889;BME280;59762;49.998;14.858;2023-07-20T04:51:41;96972.56;;;17.32;74.21
71889;BME280;59762;49.998;14.858;2023-07-20T04:54:07;96974.66;;;17.04;75.43
71889;BME280;59762;49.998;14.858;2023-07-20T04:56:33;96974.88;;;17.09;75.56
71889;BME280;59762;49.998;14.858;2023-07-20T04:58:59;96969.88;;;17.19;75.25
71889;BME280;59762;49.998;14.858;2023-07-20T05:01:25;96982.97;;;17.41;75.09
71889;BME280;59762;49.998;14.858;2023-07-20T05:03:52;96983.75;;;17.35;75.05
71889;BME280;59762;49.998;14.858;2023-07-20T05:06:18;96991.50;;;18.33;71.85
71889;BME280;59762;49.998;14.858;2023-07-20T05:08:44;96994.72;;;18.10;72.24
71889;BME280;59762;49.998;14.858;2023-07-20T05:11:10;96989.84;;;19.25;68.41
71889;BME280;59762;49.998;14.858;2023-07-20T05:13:36;96988.25;;;20.43;63.38
71889;BME280;59762;49.998;14.858;2023-07-20T05:16:02;96979.28;;;19.77;66.16
71889;BME280;59762;49.998;14.858;2023-07-20T05:18:27;96990.25;;;20.36;64.21
71889;BME280;59762;49.998;14.858;2023-07-20T05:20:53;96997.91;;;20.69;62.54
71889;BME280;59762;49.998;14.858;2023-07-20T05:23:21;96990.22;;;22.11;57.70
71889;BME280;59762;49.998;14.858;2023-07-20T05:25:47;96996.94;;;22.59;55.82
71889;BME280;59762;49.998;14.858;2023-07-20T05:28:19;96986.63;;;21.71;58.28
71889;BME280;59762;49.998;14.858;2023-07-20T05:30:44;96982.81;;;21.49;58.71
71889;BME280;59762;49.998;14.858;2023-07-20T05:33:10;96984.22;;;21.05;59.58
71889;BME280;59762;49.998;14.858;2023-07-20T05:35:36;96993.91;;;21.47;58.87
71889;BME280;59762;49.998;14.858;2023-07-20T05:38:03;96993.44;;;21.96;57.90
71889;BME280;59762;49.998;14.858;2023-07-20T05:40:30;96989.75;;;20.69;60.30
71889;BME280;59762;49.998;14.858;2023-07-20T05:42:56;96997.66;;;19.93;63.34
71889;BME280;59762;49.998;14.858;2023-07-20T05:45:22;96990.84;;;20.38;62.69
71889;BME280;59762;49.998;14.858;2023-07-20T05:47:48;96995.47;;;19.84;65.02
71889;BME280;59762;49.998;14.858;2023-07-20T05:50:14;96997.19;;;20.62;62.14
71889;BME280;59762;49.998;14.858;2023-07-20T05:52:40;96996.53;;;21.65;59.10
71889;BME280;59762;49.998;14.858;2023-07-20T05:55:07;97006.09;;;20.80;61.17
71889;BME280;59762;49.998;14.858;2023-07-20T05:57:33;97011.34;;;20.34;63.14
71889;BME280;59762;49.998;14.858;2023-07-20T05:59:59;97012.50;;;20.56;61.61
71889;BME280;59762;49.998;14.858;2023-07-20T06:02:24;97001.19;;;20.12;62.48
71889;BME280;59762;49.998;14.858;2023-07-20T06:04:50;97007.22;;;20.73;62.04
71889;BME280;59762;49.998;14.858;2023-07-20T06:07:16;97006.41;;;21.13;60.37
71889;BME280;59762;49.998;14.858;2023-07-20T06:09:41;97011.31;;;21.69;59.00
71889;BME280;59762;49.998;14.858;2023-07-20T06:12:07;97012.81;;;21.42;58.76
71889;BME280;59762;49.998;14.858;2023-07-20T06:14:33;97011.66;;;21.50;58.67
71889;BME280;59762;49.998;14.858;2023-07-20T06:16:59;97015.75;;;21.41;59.95
71889;BME280;59762;49.998;14.858;2023-07-20T06:19:24;97017.06;;;20.56;61.72
71889;BME280;59762;49.998;14.858;2023-07-20T06:21:50;97008.91;;;21.38;60.19
71889;BME280;59762;49.998;14.858;2023-07-20T06:24:17;97006.81;;;22.93;55.27
71889;BME280;59762;49.998;14.858;2023-07-20T06:26:43;97013.38;;;23.25;54.70
71889;BME280;59762;49.998;14.858;2023-07-20T06:29:08;97016.72;;;21.46;58.54
71889;BME280;59762;49.998;14.858;2023-07-20T06:31:35;97022.25;;;21.28;59.96
71889;BME280;59762;49.998;14.858;2023-07-20T06:34:01;97025.28;;;20.67;60.50
71889;BME280;59762;49.998;14.858;2023-07-20T06:36:27;97025.44;;;19.89;64.80
71889;BME280;59762;49.998;14.858;2023-07-20T06:38:52;97029.97;;;20.31;61.83
71889;BME280;59762;49.998;14.858;2023-07-20T06:41:18;97031.44;;;20.45;62.29
71889;BME280;59762;49.998;14.858;2023-07-20T06:43:44;97026.00;;;20.45;61.40
71889;BME280;59762;49.998;14.858;2023-07-20T06:46:10;97029.84;;;20.01;63.09
71889;BME280;59762;49.998;14.858;2023-07-20T06:48:36;97024.44;;;20.67;61.53
71889;BME280;59762;49.998;14.858;2023-07-20T06:51:02;97010.88;;;21.08;58.23
71889;BME280;59762;49.998;14.858;2023-07-20T06:53:28;97009.41;;;21.58;57.95
71889;BME280;59762;49.998;14.858;2023-07-20T06:55:54;97015.88;;;21.23;60.65
71889;BME280;59762;49.998;14.858;2023-07-20T06:58:23;97017.88;;;21.16;60.66
71889;BME280;59762;49.998;14.858;2023-07-20T07:00:49;97016.84;;;20.28;63.33
71889;BME280;59762;49.998;14.858;2023-07-20T07:03:15;97025.22;;;20.08;63.55
71889;BME280;59762;49.998;14.858;2023-07-20T07:05:40;97018.59;;;20.22;62.19
71889;BME280;59762;49.998;14.858;2023-07-20T07:08:06;97028.22;;;19.40;65.30
71889;BME280;59762;49.998;14.858;2023-07-20T07:10:36;97022.56;;;19.17;66.13
71889;BME280;59762;49.998;14.858;2023-07-20T07:13:02;97017.72;;;19.86;65.17
71889;BME280;59762;49.998;14.858;2023-07-20T07:15:28;97018.94;;;19.54;65.08
71889;BME280;59762;49.998;14.858;2023-07-20T07:17:54;97010.66;;;19.67;64.43
71889;BME280;59762;49.998;14.858;2023-07-20T07:20:20;97013.09;;;19.75;65.44
71889;BME280;59762;49.998;14.858;2023-07-20T07:22:47;97014.41;;;20.97;62.60
71889;BME280;59762;49.998;14.858;2023-07-20T07:25:13;97009.94;;;20.91;61.10
71889;BME280;59762;49.998;14.858;2023-07-20T07:27:39;97021.63;;;21.14;61.53
71889;BME280;59762;49.998;14.858;2023-07-20T07:30:06;97026.00;;;20.45;62.04
71889;BME280;59762;49.998;14.858;2023-07-20T07:32:31;97024.56;;;20.72;61.09
71889;BME280;59762;49.998;14.858;2023-07-20T07:34:57;97031.34;;;20.81;60.47
71889;BME280;59762;49.998;14.858;2023-07-20T07:37:25;97023.22;;;21.45;58.39
71889;BME280;59762;49.998;14.858;2023-07-20T07:39:51;97029.59;;;21.62;58.39
71889;BME280;59762;49.998;14.858;2023-07-20T07:42:17;97029.22;;;22.16;55.59
71889;BME280;59762;49.998;14.858;2023-07-20T07:44:44;97021.06;;;22.16;56.06
71889;BME280;59762;49.998;14.858;2023-07-20T07:47:10;97022.44;;;21.79;55.45
71889;BME280;59762;49.998;14.858;2023-07-20T07:49:36;97028.84;;;20.98;59.00
71889;BME280;59762;49.998;14.858;2023-07-20T07:52:01;97023.66;;;21.19;59.78
71889;BME280;59762;49.998;14.858;2023-07-20T07:54:28;97026.16;;;21.32;56.44
71889;BME280;59762;49.998;14.858;2023-07-20T07:56:54;97016.69;;;21.00;57.79
71889;BME280;59762;49.998;14.858;2023-07-20T07:59:20;97023.16;;;20.99;59.23
71889;BME280;59762;49.998;14.858;2023-07-20T08:01:45;97025.97;;;20.33;60.25
71889;BME280;59762;49.998;14.858;2023-07-20T08:04:11;97027.25;;;20.31;61.66
71889;BME280;59762;49.998;14.858;2023-07-20T08:06:37;97028.94;;;20.43;61.06
71889;BME280;59762;49.998;14.858;2023-07-20T08:09:03;97031.91;;;20.71;58.87
71889;BME280;59762;49.998;14.858;2023-07-20T08:11:28;97038.59;;;20.69;59.81
71889;BME280;59762;49.998;14.858;2023-07-20T08:13:56;97033.63;;;20.00;61.54
71889;BME280;59762;49.998;14.858;2023-07-20T08:16:22;97033.78;;;20.05;61.86
71889;BME280;59762;49.998;14.858;2023-07-20T08:18:48;97038.94;;;20.90;59.20
71889;BME280;59762;49.998;14.858;2023-07-20T08:21:13;97043.38;;;20.85;57.77
71889;BME280;59762;49.998;14.858;2023-07-20T08:23:39;97042.66;;;20.78;59.72
71889;BME280;59762;49.998;14.858;2023-07-20T08:26:05;97038.97;;;20.72;59.12
71889;BME280;59762;49.998;14.858;2023-07-20T08:28:31;97037.34;;;20.71;60.41
71889;BME280;59762;49.998;14.858;2023-07-20T08:30:56;97043.13;;;20.75;58.15
71889;BME280;59762;49.998;14.858;2023-07-20T08:33:22;97040.19;;;20.76;58.45
71889;BME280;59762;49.998;14.858;2023-07-20T08:35:48;97039.00;;;21.25;57.26
71889;BME280;59762;49.998;14.858;2023-07-20T08:38:14;97039.72;;;21.21;57.58
71889;BME280;59762;49.998;14.858;2023-07-20T08:40:41;97046.22;;;20.90;57.22
71889;BME280;59762;49.998;14.858;2023-07-20T08:43:08;97040.91;;;21.25;56.62
71889;BME280;59762;49.998;14.858;2023-07-20T08:45:36;97042.03;;;21.05;56.86
71889;BME280;59762;49.998;14.858;2023-07-20T08:48:05;97047.31;;;21.42;56.35
71889;BME280;59762;49.998;14.858;2023-07-20T08:50:32;97053.13;;;22.03;53.33
71889;BME280;59762;49.998;14.858;2023-07-20T08:52:59;97048.91;;;21.95;52.88
71889;BME280;59762;49.998;14.858;2023-07-20T08:55:28;97047.88;;;22.24;53.46
71889;BME280;59762;49.998;14.858;2023-07-20T08:57:55;97052.41;;;22.07;52.45
71889;BME280;59762;49.998;14.858;2023-07-20T09:00:22;97055.75;;;21.75;53.71
71889;BME280;59762;49.998;14.858;2023-07-20T09:02:52;97054.44;;;21.77;53.10
71889;BME280;59762;49.998;14.858;2023-07-20T09:05:19;97055.88;;;22.42;51.93
71889;BME280;59762;49.998;14.858;2023-07-20T09:07:46;97048.94;;;22.23;52.95
71889;BME280;59762;49.998;14.858;2023-07-20T09:10:12;97048.69;;;22.36;51.67
71889;BME280;59762;49.998;14.858;2023-07-20T09:12:39;97053.81;;;22.10;54.88
71889;BME280;59762;49.998;14.858;2023-07-20T09:15:06;97045.22;;;21.90;56.20
71889;BME280;59762;49.998;14.858;2023-07-20T09:17:32;97051.34;;;22.08;54.97
71889;BME280;59762;49.998;14.858;2023-07-20T09:19:59;97044.97;;;22.03;56.09
71889;BME280;59762;49.998;14.858;2023-07-20T09:22:30;97044.75;;;21.81;55.54
71889;BME280;59762;49.998;14.858;2023-07-20T09:24:57;97052.38;;;21.38;56.20
71889;BME280;59762;49.998;14.858;2023-07-20T09:27:40;97040.97;;;21.94;55.90
71889;BME280;59762;49.998;14.858;2023-07-20T09:30:06;97044.72;;;21.47;56.62
71889;BME280;59762;49.998;14.858;2023-07-20T09:32:44;97038.22;;;21.59;55.41
71889;BME280;59762;49.998;14.858;2023-07-20T09:35:14;97033.75;;;21.53;55.46
71889;BME280;59762;49.998;14.858;2023-07-20T09:37:46;97041.53;;;21.61;54.85
71889;BME280;59762;49.998;14.858;2023-07-20T09:40:15;97034.31;;;22.13;53.32
71889;BME280;59762;49.998;14.858;2023-07-20T09:42:41;97038.75;;;22.42;53.37
71889;BME280;59762;49.998;14.858;2023-07-20T09:45:08;97035.44;;;21.89;52.29
71889;BME280;59762;49.998;14.858;2023-07-20T09:47:36;97041.28;;;22.09;51.24
71889;BME280;59762;49.998;14.858;2023-07-20T09:50:03;97035.94;;;22.25;50.10
71889;BME280;59762;49.998;14.858;2023-07-20T09:52:30;97037.50;;;22.61;49.85
71889;BME280;59762;49.998;14.858;2023-07-20T09:54:56;97035.38;;;22.12;49.80
71889;BME280;59762;49.998;14.858;2023-07-20T09:57:23;97038.78;;;21.15;51.32
71889;BME280;59762;49.998;14.858;2023-07-20T09:59:48;97040.59;;;21.33;51.29
71889;BME280;59762;49.998;14.858;2023-07-20T10:02:24;97049.34;;;20.93;53.16
71889;BME280;59762;49.998;14.858;2023-07-20T10:04:53;97046.94;;;21.38;52.76
71889;BME280;59762;49.998;14.858;2023-07-20T10:07:22;97046.75;;;21.97;50.72
71889;BME280;59762;49.998;14.858;2023-07-20T10:09:51;97043.47;;;22.46;47.62
71889;BME280;59762;49.998;14.858;2023-07-20T10:12:19;97040.63;;;22.81;47.50
71889;BME280;59762;49.998;14.858;2023-07-20T10:14:59;97027.16;;;22.35;48.40
71889;BME280;59762;49.998;14.858;2023-07-20T10:17:31;97037.25;;;22.11;48.07
71889;BME280;59762;49.998;14.858;2023-07-20T10:19:58;97022.97;;;21.93;49.88
71889;BME280;59762;49.998;14.858;2023-07-20T10:22:26;97025.84;;;21.75;48.60
71889;BME280;59762;49.998;14.858;2023-07-20T10:24:53;97031.16;;;21.81;49.11
71889;BME280;59762;49.998;14.858;2023-07-20T10:27:23;97015.78;;;21.64;49.74
71889;BME280;59762;49.998;14.858;2023-07-20T10:29:48;97029.25;;;21.93;49.59
71889;BME280;59762;49.998;14.858;2023-07-20T10:32:16;97028.91;;;22.52;49.04
71889;BME280;59762;49.998;14.858;2023-07-20T10:34:42;97024.41;;;23.02;47.65
71889;BME280;59762;49.998;14.858;2023-07-20T10:37:08;97027.38;;;23.29;47.36
71889;BME280;59762;49.998;14.858;2023-07-20T10:39:33;97029.63;;;22.36;47.03
71889;BME280;59762;49.998;14.858;2023-07-20T10:42:02;97025.50;;;23.01;44.95
71889;BME280;59762;49.998;14.858;2023-07-20T10:44:28;97026.56;;;23.00;44.35
71889;BME280;59762;49.998;14.858;2023-07-20T10:47:02;97019.97;;;22.96;45.00
71889;BME280;59762;49.998;14.858;2023-07-20T10:49:28;97016.06;;;22.64;45.02
71889;BME280;59762;49.998;14.858;2023-07-20T10:51:59;97009.88;;;22.41;45.60
71889;BME280;59762;49.998;14.858;2023-07-20T10:56:50;97022.50;;;21.96;46.18
71889;BME280;59762;49.998;14.858;2023-07-20T11:01:57;97037.59;;;22.26;47.09
71889;BME280;59762;49.998;14.858;2023-07-20T11:04:41;97026.34;;;22.34;45.88
71889;BME280;59762;49.998;14.858;2023-07-20T11:07:08;97022.09;;;22.27;46.18
71889;BME280;59762;49.998;14.858;2023-07-20T11:09:34;97028.41;;;22.55;45.37
71889;BME280;59762;49.998;14.858;2023-07-20T11:12:17;97036.25;;;22.40;45.33
71889;BME280;59762;49.998;14.858;2023-07-20T11:14:53;97027.63;;;21.92;49.72
71889;BME280;59762;49.998;14.858;2023-07-20T11:17:20;97031.84;;;22.62;49.15
71889;BME280;59762;49.998;14.858;2023-07-20T11:19:48;97033.28;;;22.42;49.86
71889;BME280;59762;49.998;14.858;2023-07-20T11:22:16;97034.56;;;22.62;50.15
71889;BME280;59762;49.998;14.858;2023-07-20T11:24:42;97026.78;;;22.43;50.72
71889;BME280;59762;49.998;14.858;2023-07-20T11:27:08;97028.53;;;22.60;50.15
71889;BME280;59762;49.998;14.858;2023-07-20T11:29:35;97022.22;;;23.16;48.13
71889;BME280;59762;49.998;14.858;2023-07-20T11:32:02;97016.47;;;23.45;46.86
71889;BME280;59762;49.998;14.858;2023-07-20T11:34:31;97016.03;;;23.20;46.94
71889;BME280;59762;49.998;14.858;2023-07-20T11:36:58;97020.97;;;22.79;46.92
71889;BME280;59762;49.998;14.858;2023-07-20T11:39:25;97030.84;;;22.68;48.24
71889;BME280;59762;49.998;14.858;2023-07-20T11:41:52;97038.22;;;22.17;49.37
71889;BME280;59762;49.998;14.858;2023-07-20T11:44:19;97033.97;;;21.86;51.78
71889;BME280;59762;49.998;14.858;2023-07-20T11:46:46;97037.41;;;21.59;54.22
71889;BME280;59762;49.998;14.858;2023-07-20T11:49:12;97021.22;;;21.64;53.25
71889;BME280;59762;49.998;14.858;2023-07-20T11:51:39;97023.72;;;21.88;52.31
71889;BME280;59762;49.998;14.858;2023-07-20T11:54:07;97019.09;;;22.40;51.58
71889;BME280;59762;49.998;14.858;2023-07-20T11:56:33;97018.16;;;22.74;49.62
71889;BME280;59762;49.998;14.858;2023-07-20T11:59:00;97008.44;;;22.78;48.74
71889;BME280;59762;49.998;14.858;2023-07-20T12:01:28;97011.00;;;22.84;47.88
71889;BME280;59762;49.998;14.858;2023-07-20T12:03:56;97002.28;;;22.54;47.71
71889;BME280;59762;49.998;14.858;2023-07-20T12:06:27;97007.44;;;23.12;46.26
71889;BME280;59762;49.998;14.858;2023-07-20T12:08:57;97000.56;;;23.09;45.30
71889;BME280;59762;49.998;14.858;2023-07-20T12:11:34;96997.06;;;23.42;45.99
71889;BME280;59762;49.998;14.858;2023-07-20T12:14:00;96986.91;;;23.54;44.79
71889;BME280;59762;49.998;14.858;2023-07-20T12:16:29;96986.72;;;23.98;43.10
71889;BME280;59762;49.998;14.858;2023-07-20T12:21:28;96992.88;;;23.89;44.21
71889;BME280;59762;49.998;14.858;2023-07-20T12:23:56;96997.00;;;23.75;42.19
71889;BME280;59762;49.998;14.858;2023-07-20T12:26:22;96992.38;;;23.92;41.03
71889;BME280;59762;49.998;14.858;2023-07-20T12:28:49;96988.97;;;24.01;41.35
71889;BME280;59762;49.998;14.858;2023-07-20T12:31:15;96984.06;;;23.65;42.10
71889;BME280;59762;49.998;14.858;2023-07-20T12:33:41;96978.69;;;23.70;41.99
71889;BME280;59762;49.998;14.858;2023-07-20T12:36:08;96980.16;;;22.79;44.45
71889;BME280;59762;49.998;14.858;2023-07-20T12:38:34;96978.66;;;22.71;44.47
71889;BME280;59762;49.998;14.858;2023-07-20T12:41:01;96986.81;;;22.43;44.23
71889;BME280;59762;49.998;14.858;2023-07-20T12:43:27;96989.16;;;22.79;42.71
71889;BME280;59762;49.998;14.858;2023-07-20T12:45:53;96986.44;;;22.79;43.14
71889;BME280;59762;49.998;14.858;2023-07-20T12:48:18;96975.31;;;22.97;42.29
71889;BME280;59762;49.998;14.858;2023-07-20T12:50:44;96982.75;;;23.02;42.99
71889;BME280;59762;49.998;14.858;2023-07-20T12:53:10;96966.47;;;22.90;42.00
71889;BME280;59762;49.998;14.858;2023-07-20T12:55:37;96972.66;;;23.02;41.96
71889;BME280;59762;49.998;14.858;2023-07-20T12:58:02;96965.34;;;23.90;40.47
71889;BME280;59762;49.998;14.858;2023-07-20T13:00:28;96961.00;;;23.73;39.98